createdAt,value
2023-04-24T00:00:09.821Z,14.4
2023-04-24T00:01:15.982Z,14.4
2023-04-24T00:04:03.981Z,14.4
2023-04-24T00:06:10.945Z,14.3
2023-04-24T00:07:22.954Z,14.3
2023-04-24T00:08:32.114Z,14.3
2023-04-24T00:09:47.211Z,14.3
2023-04-24T00:10:58.994Z,14.3
2023-04-24T00:12:00.270Z,14.3
2023-04-24T00:13:06.636Z,14.3
2023-04-24T00:14:12.054Z,14.3
2023-04-24T00:15:31.068Z,14.3
2023-04-24T00:16:35.194Z,14.3
2023-04-24T00:17:41.508Z,14.3
2023-04-24T00:19:00.061Z,14.3
2023-04-24T00:21:09.948Z,14.2
2023-04-24T00:22:20.535Z,14.2
2023-04-24T00:24:09.342Z,14.2
2023-04-24T00:25:16.256Z,14.2
2023-04-24T00:26:42.200Z,14.2
2023-04-24T00:27:48.439Z,14.2
2023-04-24T00:29:09.881Z,14.2
2023-04-24T00:30:13.812Z,14.2
2023-04-24T00:31:23.338Z,14.2
2023-04-24T00:32:30.086Z,14.2
2023-04-24T00:33:33.991Z,14.2
2023-04-24T00:34:35.173Z,14.2
2023-04-24T00:35:42.884Z,14.2
2023-04-24T00:36:50.127Z,14.2
2023-04-24T00:38:07.198Z,14.1
2023-04-24T00:39:29.159Z,14.1
2023-04-24T00:40:39.995Z,14.1
2023-04-24T00:41:43.457Z,14.1
2023-04-24T00:42:55.047Z,14.1
2023-04-24T00:44:02.242Z,14.1
2023-04-24T00:45:11.321Z,14.1
2023-04-24T00:46:37.758Z,14.1
2023-04-24T00:47:39.323Z,14.1
2023-04-24T00:48:52.032Z,14.1
2023-04-24T00:49:58.204Z,14
2023-04-24T00:51:04.711Z,14
2023-04-24T00:52:08.673Z,14
2023-04-24T00:54:44.353Z,14
2023-04-24T00:57:05.331Z,14
2023-04-24T00:58:09.622Z,14
2023-04-24T00:59:18.485Z,14
2023-04-24T01:00:33.459Z,14
2023-04-24T01:01:46.341Z,14
2023-04-24T01:02:53.405Z,14
2023-04-24T01:04:19.532Z,13.9
2023-04-24T01:05:40.338Z,13.9
2023-04-24T01:07:04.739Z,13.9
2023-04-24T01:08:11.831Z,13.9
2023-04-24T01:09:36.070Z,13.9
2023-04-24T01:10:42.647Z,13.9
2023-04-24T01:11:48.828Z,13.9
2023-04-24T01:12:52.792Z,13.9
2023-04-24T01:13:59.312Z,13.8
2023-04-24T01:15:02.817Z,13.8
2023-04-24T01:17:48.773Z,13.8
2023-04-24T01:18:50.088Z,13.8
2023-04-24T01:20:01.637Z,13.8
2023-04-24T01:21:05.702Z,13.8
2023-04-24T01:22:12.855Z,13.8
2023-04-24T01:23:14.099Z,13.7
2023-04-24T01:26:12.073Z,13.7
2023-04-24T01:27:16.308Z,13.7
2023-04-24T01:28:17.555Z,13.7
2023-04-24T01:29:29.058Z,13.7
2023-04-24T01:30:41.542Z,13.7
2023-04-24T01:31:47.850Z,13.6
2023-04-24T01:32:57.603Z,13.6
2023-04-24T01:34:04.484Z,13.6
2023-04-24T01:35:16.698Z,13.6
2023-04-24T01:36:31.124Z,13.6
2023-04-24T01:37:43.948Z,13.6
2023-04-24T01:38:47.653Z,13.6
2023-04-24T01:39:51.623Z,13.5
2023-04-24T01:40:58.036Z,13.5
2023-04-24T01:42:04.077Z,13.5
2023-04-24T01:43:05.305Z,13.5
2023-04-24T01:44:27.548Z,13.5
2023-04-24T01:46:40.435Z,13.5
2023-04-24T01:47:41.744Z,13.4
2023-04-24T01:48:43.053Z,13.5
2023-04-24T01:49:44.684Z,13.4
2023-04-24T01:50:49.132Z,13.4
2023-04-24T01:51:56.105Z,13.4
2023-04-24T01:52:57.248Z,13.4
2023-04-24T01:54:02.872Z,13.4
2023-04-24T01:55:06.892Z,13.4
2023-04-24T01:56:08.069Z,13.3
2023-04-24T01:57:16.476Z,13.3
2023-04-24T01:58:17.650Z,13.3
2023-04-24T01:59:37.998Z,13.3
2023-04-24T02:00:47.009Z,13.3
2023-04-24T02:01:48.412Z,13.3
2023-04-24T02:02:58.336Z,13.3
2023-04-24T02:04:02.548Z,13.2
2023-04-24T02:06:18.654Z,13.2
2023-04-24T02:07:21.991Z,13.2
2023-04-24T02:08:35.113Z,13.2
2023-04-24T02:09:41.301Z,13.2
2023-04-24T02:10:48.334Z,13.1
2023-04-24T02:11:59.427Z,13.1
2023-04-24T02:13:09.555Z,13.1
2023-04-24T02:14:13.321Z,13.1
2023-04-24T02:15:14.703Z,13.1
2023-04-24T02:16:26.839Z,13.1
2023-04-24T02:17:40.594Z,13.1
2023-04-24T02:18:44.749Z,13.1
2023-04-24T02:19:50.863Z,13
2023-04-24T02:20:54.626Z,13
2023-04-24T02:22:42.157Z,13
2023-04-24T02:23:46.059Z,13
2023-04-24T02:24:52.239Z,13
2023-04-24T02:25:57.999Z,13
2023-04-24T02:27:07.906Z,13
2023-04-24T02:28:15.043Z,13
2023-04-24T02:29:16.286Z,13
2023-04-24T02:30:26.522Z,13
2023-04-24T02:31:36.702Z,13
2023-04-24T02:32:41.921Z,13
2023-04-24T02:33:48.050Z,12.9
2023-04-24T02:34:54.561Z,12.9
2023-04-24T02:35:55.817Z,12.9
2023-04-24T02:36:59.422Z,12.9
2023-04-24T02:38:03.067Z,12.9
2023-04-24T02:39:09.572Z,12.9
2023-04-24T02:40:13.531Z,12.9
2023-04-24T02:41:28.453Z,12.9
2023-04-24T02:42:52.950Z,12.9
2023-04-24T02:43:56.636Z,12.8
2023-04-24T02:44:57.906Z,12.8
2023-04-24T02:46:02.193Z,12.8
2023-04-24T02:47:06.277Z,12.8
2023-04-24T02:48:19.210Z,12.8
2023-04-24T02:49:29.134Z,12.8
2023-04-24T02:50:30.312Z,12.8
2023-04-24T02:51:34.199Z,12.8
2023-04-24T02:52:35.363Z,12.8
2023-04-24T02:53:44.670Z,12.8
2023-04-24T02:54:49.040Z,12.8
2023-04-24T02:55:59.037Z,12.8
2023-04-24T02:57:03.021Z,12.7
2023-04-24T02:59:20.646Z,12.7
2023-04-24T03:00:30.051Z,12.7
2023-04-24T03:01:36.437Z,12.7
2023-04-24T03:02:43.507Z,12.7
2023-04-24T03:03:45.270Z,12.7
2023-04-24T03:04:54.712Z,12.7
2023-04-24T03:05:55.900Z,12.7
2023-04-24T03:06:57.047Z,12.7
2023-04-24T03:08:00.774Z,12.6
2023-04-24T03:09:04.795Z,12.6
2023-04-24T03:10:09.135Z,12.6
2023-04-24T03:11:10.339Z,12.6
2023-04-24T03:12:48.886Z,12.6
2023-04-24T03:13:52.786Z,12.6
2023-04-24T03:14:56.630Z,12.6
2023-04-24T03:16:02.110Z,12.6
2023-04-24T03:17:15.363Z,12.6
2023-04-24T03:18:16.586Z,12.6
2023-04-24T03:19:20.930Z,12.6
2023-04-24T03:20:22.124Z,12.5
2023-04-24T03:21:26.148Z,12.5
2023-04-24T03:22:27.323Z,12.5
2023-04-24T03:23:33.447Z,12.5
2023-04-24T03:24:37.612Z,12.5
2023-04-24T03:25:47.408Z,12.5
2023-04-24T03:26:51.364Z,12.5
2023-04-24T03:27:53.756Z,12.5
2023-04-24T03:29:00.448Z,12.5
2023-04-24T03:30:07.168Z,12.4
2023-04-24T03:31:11.407Z,12.4
2023-04-24T03:32:15.631Z,12.4
2023-04-24T03:33:19.963Z,12.4
2023-04-24T03:34:21.117Z,12.4
2023-04-24T03:35:22.310Z,12.4
2023-04-24T03:36:25.634Z,12.4
2023-04-24T03:37:26.786Z,12.4
2023-04-24T03:38:28.024Z,12.3
2023-04-24T03:39:36.072Z,12.3
2023-04-24T03:40:46.298Z,12.3
2023-04-24T03:42:56.365Z,12.3
2023-04-24T03:43:57.641Z,12.3
2023-04-24T03:44:58.813Z,12.3
2023-04-24T03:46:03.002Z,12.3
2023-04-24T03:47:06.953Z,12.3
2023-04-24T03:48:13.777Z,12.3
2023-04-24T03:49:20.353Z,12.2
2023-04-24T03:50:30.491Z,12.2
2023-04-24T03:51:34.509Z,12.2
2023-04-24T03:52:40.921Z,12.2
2023-04-24T03:53:42.131Z,12.2
2023-04-24T03:54:46.339Z,12.2
2023-04-24T03:56:56.225Z,12.2
2023-04-24T03:58:17.703Z,12.2
2023-04-24T03:59:28.809Z,12.2
2023-04-24T04:00:37.816Z,12.2
2023-04-24T04:01:51.245Z,12.2
2023-04-24T04:02:57.878Z,12.2
2023-04-24T04:04:03.094Z,12.2
2023-04-24T04:05:14.014Z,12.2
2023-04-24T04:06:18.269Z,12.2
2023-04-24T04:07:25.679Z,12.2
2023-04-24T04:08:32.527Z,12.2
2023-04-24T04:09:46.328Z,12.2
2023-04-24T04:10:47.544Z,12.2
2023-04-24T04:11:48.750Z,12.1
2023-04-24T04:12:55.478Z,12.1
2023-04-24T04:14:12.940Z,12.1
2023-04-24T04:15:21.629Z,12.1
2023-04-24T04:16:31.105Z,12.1
2023-04-24T04:17:38.671Z,12.1
2023-04-24T04:19:01.683Z,12.1
2023-04-24T04:20:14.252Z,12.1
2023-04-24T04:22:29.457Z,12.1
2023-04-24T04:23:38.650Z,12.1
2023-04-24T04:25:48.624Z,12.1
2023-04-24T04:26:49.846Z,12.1
2023-04-24T04:27:53.918Z,12.1
2023-04-24T04:29:06.756Z,12.1
2023-04-24T04:31:57.442Z,12.2
2023-04-24T04:33:04.397Z,12.2
2023-04-24T04:34:08.495Z,12.2
2023-04-24T04:35:18.649Z,12.2
2023-04-24T04:36:24.019Z,12.2
2023-04-24T04:38:18.943Z,12.2
2023-04-24T04:39:20.178Z,12.2
2023-04-24T04:41:35.578Z,12.3
2023-04-24T04:42:40.842Z,12.3
2023-04-24T04:43:50.352Z,12.3
2023-04-24T04:46:17.138Z,12.3
2023-04-24T04:47:31.060Z,12.3
2023-04-24T04:48:39.860Z,12.3
2023-04-24T04:49:46.433Z,12.4
2023-04-24T04:50:50.120Z,12.4
2023-04-24T04:52:08.112Z,12.4
2023-04-24T04:53:09.265Z,12.4
2023-04-24T04:54:15.668Z,12.4
2023-04-24T04:56:47.611Z,12.4
2023-04-24T04:57:48.804Z,12.4
2023-04-24T05:00:07.903Z,12.5
2023-04-24T05:01:24.786Z,12.5
2023-04-24T05:02:35.658Z,12.5
2023-04-24T05:03:43.550Z,12.5
2023-04-24T05:04:45.610Z,12.5
2023-04-24T05:05:50.822Z,12.5
2023-04-24T05:06:52.021Z,12.5
2023-04-24T05:07:53.182Z,12.5
2023-04-24T05:08:57.257Z,12.6
2023-04-24T05:10:00.867Z,12.6
2023-04-24T05:11:16.351Z,12.6
2023-04-24T05:12:17.553Z,12.6
2023-04-24T05:13:38.908Z,12.6
2023-04-24T05:14:45.037Z,12.7
2023-04-24T05:15:46.222Z,12.7
2023-04-24T05:16:52.794Z,12.7
2023-04-24T05:17:54.804Z,12.7
2023-04-24T05:19:02.543Z,12.7
2023-04-24T05:20:10.752Z,12.7
2023-04-24T05:21:14.731Z,12.8
2023-04-24T05:22:16.014Z,12.8
2023-04-24T05:23:17.202Z,12.8
2023-04-24T05:24:21.386Z,12.8
2023-04-24T05:25:22.604Z,12.9
2023-04-24T05:26:32.532Z,12.9
2023-04-24T05:27:41.823Z,12.9
2023-04-24T05:28:51.044Z,12.9
2023-04-24T05:30:06.177Z,12.9
2023-04-24T05:31:21.974Z,13
2023-04-24T05:32:28.247Z,13
2023-04-24T05:33:32.171Z,13
2023-04-24T05:34:33.415Z,13
2023-04-24T05:35:34.565Z,13.1
2023-04-24T05:36:37.917Z,13.1
2023-04-24T05:37:39.216Z,13.1
2023-04-24T05:38:43.218Z,13.2
2023-04-24T05:39:52.340Z,13.2
2023-04-24T05:40:58.705Z,13.2
2023-04-24T05:41:59.940Z,13.3
2023-04-24T05:43:03.496Z,13.3
2023-04-24T05:44:07.652Z,13.3
2023-04-24T05:45:14.140Z,13.4
2023-04-24T05:46:17.553Z,13.4
2023-04-24T05:47:21.339Z,13.4
2023-04-24T05:48:36.579Z,13.5
2023-04-24T05:49:37.776Z,13.5
2023-04-24T05:50:39.026Z,13.5
2023-04-24T05:51:42.501Z,13.5
2023-04-24T05:52:49.469Z,13.6
2023-04-24T05:53:53.575Z,13.6
2023-04-24T05:54:57.520Z,13.7
2023-04-24T05:56:01.199Z,13.7
2023-04-24T05:57:08.151Z,13.7
2023-04-24T05:58:14.685Z,13.7
2023-04-24T05:59:18.322Z,13.8
2023-04-24T06:00:27.625Z,13.8
2023-04-24T06:01:28.837Z,13.8
2023-04-24T06:02:37.756Z,13.8
2023-04-24T06:03:42.382Z,13.8
2023-04-24T06:04:55.922Z,13.9
2023-04-24T06:06:03.191Z,13.9
2023-04-24T06:07:06.921Z,13.9
2023-04-24T06:08:11.069Z,13.9
2023-04-24T06:09:12.213Z,13.9
2023-04-24T06:10:13.400Z,13.9
2023-04-24T06:11:14.577Z,13.9
2023-04-24T06:12:15.819Z,14
2023-04-24T06:13:22.295Z,14
2023-04-24T06:14:23.446Z,14
2023-04-24T06:15:24.662Z,14
2023-04-24T06:16:33.000Z,14
2023-04-24T06:17:55.340Z,14
2023-04-24T06:18:56.634Z,14
2023-04-24T06:20:01.872Z,14.1
2023-04-24T06:21:08.794Z,14.1
2023-04-24T06:22:12.872Z,14.1
2023-04-24T06:23:14.062Z,14.1
2023-04-24T06:24:15.211Z,14.2
2023-04-24T06:25:25.358Z,14.2
2023-04-24T06:26:26.645Z,14.2
2023-04-24T06:27:30.650Z,14.2
2023-04-24T06:28:31.820Z,14.3
2023-04-24T06:29:35.683Z,14.3
2023-04-24T06:30:36.851Z,14.3
2023-04-24T06:31:41.338Z,14.3
2023-04-24T06:32:47.577Z,14.4
2023-04-24T06:34:55.012Z,14.4
2023-04-24T06:35:56.756Z,14.5
2023-04-24T06:37:00.662Z,14.5
2023-04-24T06:38:01.835Z,14.6
2023-04-24T06:39:02.989Z,14.6
2023-04-24T06:40:08.417Z,14.7
2023-04-24T06:41:17.121Z,14.7
2023-04-24T06:42:18.432Z,14.7
2023-04-24T06:43:19.580Z,14.7
2023-04-24T06:44:20.749Z,14.8
2023-04-24T06:45:22.285Z,14.8
2023-04-24T06:46:23.489Z,14.8
2023-04-24T06:47:24.756Z,14.8
2023-04-24T06:48:35.255Z,14.8
2023-04-24T06:49:45.683Z,14.8
2023-04-24T06:50:47.523Z,14.9
2023-04-24T06:51:48.714Z,14.9
2023-04-24T06:52:52.153Z,14.9
2023-04-24T06:53:53.318Z,14.9
2023-04-24T06:55:11.880Z,15
2023-04-24T06:57:01.091Z,15
2023-04-24T06:58:25.903Z,15.1
2023-04-24T06:59:29.790Z,15.1
2023-04-24T07:00:30.998Z,15.2
2023-04-24T07:01:32.165Z,15.2
2023-04-24T07:02:39.031Z,15.3
2023-04-24T07:03:57.613Z,15.3
2023-04-24T07:06:15.961Z,15.4
2023-04-24T07:07:25.014Z,15.4
2023-04-24T07:09:54.539Z,15.5
2023-04-24T07:11:01.068Z,15.5
2023-04-24T07:13:33.648Z,15.5
2023-04-24T07:14:54.818Z,15.6
2023-04-24T07:15:59.872Z,15.6
2023-04-24T07:17:26.280Z,15.7
2023-04-24T07:18:36.576Z,15.7
2023-04-24T07:19:40.797Z,15.7
2023-04-24T07:20:42.746Z,15.8
2023-04-24T07:21:43.909Z,15.8
2023-04-24T07:23:51.236Z,15.8
2023-04-24T07:24:52.439Z,15.8
2023-04-24T07:25:59.041Z,15.8
2023-04-24T07:27:00.202Z,15.9
2023-04-24T07:28:01.361Z,15.9
2023-04-24T07:29:05.074Z,16
2023-04-24T07:30:06.237Z,16
2023-04-24T07:31:07.422Z,16
2023-04-24T07:32:11.383Z,16
2023-04-24T07:33:12.603Z,16
2023-04-24T07:34:19.410Z,16
2023-04-24T07:35:20.575Z,16.1
2023-04-24T07:36:21.751Z,16.1
2023-04-24T07:37:22.899Z,16.2
2023-04-24T07:38:24.068Z,16.3
2023-04-24T07:39:25.233Z,16.4
2023-04-24T07:40:26.398Z,16.4
2023-04-24T07:41:27.603Z,16.4
2023-04-24T07:42:28.777Z,16.4
2023-04-24T07:43:29.947Z,16.4
2023-04-24T07:44:34.162Z,16.5
2023-04-24T07:45:35.310Z,16.5
2023-04-24T07:46:36.529Z,16.6
2023-04-24T07:47:40.808Z,16.6
2023-04-24T07:48:42.105Z,16.6
2023-04-24T07:49:43.600Z,16.6
2023-04-24T07:50:46.015Z,16.6
2023-04-24T07:51:47.212Z,16.7
2023-04-24T07:52:48.387Z,16.7
2023-04-24T07:53:49.534Z,16.8
2023-04-24T07:54:50.740Z,16.7
2023-04-24T07:55:51.950Z,16.8
2023-04-24T07:56:53.168Z,17
2023-04-24T07:57:56.960Z,17.1
2023-04-24T07:59:09.126Z,17.3
2023-04-24T08:00:10.337Z,17.5
2023-04-24T08:01:14.678Z,17.8
2023-04-24T08:02:15.823Z,18.1
2023-04-24T08:03:17.209Z,18.1
2023-04-24T08:04:22.559Z,18.2
2023-04-24T08:05:24.524Z,18.5
2023-04-24T08:06:30.061Z,18.6
2023-04-24T08:07:54.693Z,18.7
2023-04-24T08:08:55.867Z,18.9
2023-04-24T08:09:57.025Z,18.9
2023-04-24T08:11:04.987Z,19
2023-04-24T08:12:06.135Z,19
2023-04-24T08:13:12.916Z,19.1
2023-04-24T08:14:14.184Z,19
2023-04-24T08:15:21.443Z,19
2023-04-24T08:16:31.422Z,19.1
2023-04-24T08:17:32.900Z,19.1
2023-04-24T08:19:48.065Z,19.1
2023-04-24T08:20:49.196Z,19.1
2023-04-24T08:21:50.391Z,19.1
2023-04-24T08:22:51.525Z,19.1
2023-04-24T08:23:55.779Z,19.1
2023-04-24T08:24:56.948Z,19
2023-04-24T08:27:28.174Z,19
2023-04-24T08:28:29.420Z,19
2023-04-24T08:29:30.568Z,18.9
2023-04-24T08:30:40.117Z,19.1
2023-04-24T08:31:48.693Z,19.2
2023-04-24T08:32:55.247Z,19.2
2023-04-24T08:33:56.686Z,19.6
2023-04-24T08:34:57.823Z,19.8
2023-04-24T08:37:15.244Z,20.2
2023-04-24T08:39:53.793Z,20.6
2023-04-24T08:40:57.494Z,20.8
2023-04-24T08:41:58.677Z,21.1
2023-04-24T08:42:59.842Z,21.3
2023-04-24T08:44:01.052Z,21.5
2023-04-24T08:45:12.291Z,21.7
2023-04-24T08:46:18.707Z,21.9
2023-04-24T08:47:20.007Z,22
2023-04-24T08:48:30.235Z,22
2023-04-24T08:49:38.704Z,22.2
2023-04-24T08:50:43.144Z,22.6
2023-04-24T08:51:44.413Z,22.9
2023-04-24T08:52:45.659Z,23
2023-04-24T08:53:49.506Z,22.9
2023-04-24T08:56:00.473Z,23.4
2023-04-24T08:57:10.579Z,23.5
2023-04-24T08:58:20.543Z,23.7
2023-04-24T08:59:29.689Z,24
2023-04-24T09:00:33.573Z,24.2
2023-04-24T09:40:13.368Z,25.6
2023-04-24T09:41:17.309Z,25.8
2023-04-24T09:42:19.888Z,26
2023-04-24T09:43:23.847Z,26.1
2023-04-24T09:44:24.983Z,26.3
2023-04-24T09:45:26.144Z,26
2023-04-24T09:46:27.346Z,26.4
2023-04-24T09:47:28.850Z,26.7
2023-04-24T09:48:32.753Z,26.9
2023-04-24T09:49:33.999Z,27.1
2023-04-24T09:50:35.277Z,26.8
2023-04-24T09:51:36.493Z,26.6
2023-04-24T09:52:37.705Z,26.5
2023-04-24T09:53:38.926Z,26.4
2023-04-24T09:54:40.082Z,26.3
2023-04-24T09:55:46.230Z,26.5
2023-04-24T09:56:47.596Z,26.5
2023-04-24T09:57:48.748Z,26.8
2023-04-24T09:58:49.957Z,26.5
2023-04-24T09:59:51.131Z,26.2
2023-04-24T10:00:52.312Z,26
2023-04-24T10:01:56.567Z,25.7
2023-04-24T10:02:58.468Z,25.5
2023-04-24T10:04:00.171Z,25.3
2023-04-24T10:05:01.744Z,25.2
2023-04-24T10:06:03.574Z,25.2
2023-04-24T10:07:04.738Z,25.5
2023-04-24T10:08:06.002Z,25.6
2023-04-24T10:09:07.166Z,25.7
2023-04-24T10:10:08.337Z,25.9
2023-04-24T10:11:09.525Z,26
2023-04-24T10:12:10.824Z,26.2
2023-04-24T10:13:12.382Z,26.3
2023-04-24T10:14:13.529Z,26.5
2023-04-24T10:15:14.722Z,26.6
2023-04-24T10:16:15.904Z,26.7
2023-04-24T10:17:17.103Z,26.9
2023-04-24T10:18:18.377Z,27
2023-04-24T10:19:19.727Z,27.1
2023-04-24T10:20:20.981Z,27.3
2023-04-24T10:21:22.155Z,27.4
2023-04-24T10:22:23.337Z,27.5
2023-04-24T10:23:24.539Z,27.7
2023-04-24T10:24:30.117Z,27.8
2023-04-24T10:25:31.327Z,27.9
2023-04-24T10:26:32.514Z,28.1
2023-04-24T10:27:33.703Z,28.2
2023-04-24T10:28:34.868Z,28.3
2023-04-24T10:29:36.047Z,28.5
2023-04-24T10:30:37.186Z,28.6
2023-04-24T10:31:41.679Z,28.6
2023-04-24T10:32:45.550Z,28.8
2023-04-24T10:33:49.660Z,28.9
2023-04-24T10:34:50.917Z,29
2023-04-24T10:35:51.899Z,29
2023-04-24T10:36:58.591Z,29.2
2023-04-24T10:38:03.145Z,29.3
2023-04-24T10:39:06.927Z,29.4
2023-04-24T10:40:08.242Z,29
2023-04-24T10:41:09.384Z,29
2023-04-24T10:42:12.697Z,29.1
2023-04-24T10:43:13.945Z,28.7
2023-04-24T10:44:17.902Z,28.4
2023-04-24T10:45:19.037Z,28.1
2023-04-24T10:46:20.240Z,27.9
2023-04-24T10:47:21.442Z,27.7
2023-04-24T10:48:22.738Z,27.5
2023-04-24T10:49:24.000Z,27.3
2023-04-24T10:50:27.738Z,27.2
2023-04-24T10:51:31.090Z,27.4
2023-04-24T10:52:32.294Z,27.1
2023-04-24T10:53:33.444Z,26.9
2023-04-24T10:54:34.604Z,26.6
2023-04-24T10:55:35.761Z,26.5
2023-04-24T10:56:36.931Z,26.3
2023-04-24T10:57:45.191Z,26.3
2023-04-24T10:58:46.534Z,26.2
2023-04-24T10:59:47.681Z,26.1
2023-04-24T11:00:51.661Z,26
2023-04-24T11:01:52.947Z,25.8
2023-04-24T11:02:54.292Z,25.6
2023-04-24T11:03:56.269Z,25.5
2023-04-24T11:04:57.745Z,25.3
2023-04-24T11:05:59.983Z,25.1
2023-04-24T11:07:01.171Z,25.1
2023-04-24T11:08:03.978Z,25
2023-04-24T11:09:08.332Z,24.9
2023-04-24T11:10:09.554Z,24.8
2023-04-24T11:11:10.779Z,24.9
2023-04-24T11:12:11.983Z,25.3
2023-04-24T11:13:16.003Z,25.1
2023-04-24T11:14:17.347Z,24.9
2023-04-24T11:15:18.546Z,24.8
2023-04-24T11:16:19.724Z,24.7
2023-04-24T11:17:20.993Z,24.6
2023-04-24T11:18:25.110Z,24.5
2023-04-24T11:19:26.306Z,24.8
2023-04-24T11:20:28.507Z,25.1
2023-04-24T11:21:30.016Z,25.3
2023-04-24T11:22:31.220Z,25.7
2023-04-24T11:23:32.382Z,26
2023-04-24T11:24:33.560Z,25.9
2023-04-24T11:25:34.724Z,25.9
2023-04-24T11:26:35.882Z,25.7
2023-04-24T11:27:37.035Z,25.6
2023-04-24T11:28:38.286Z,25.4
2023-04-24T11:29:43.369Z,25.3
2023-04-24T11:30:44.632Z,25.3
2023-04-24T11:31:45.802Z,25.1
2023-04-24T11:32:46.993Z,25.2
2023-04-24T11:33:48.172Z,25.1
2023-04-24T11:34:49.382Z,25
2023-04-24T11:35:50.507Z,25.3
2023-04-24T11:36:51.716Z,25.2
2023-04-24T11:38:12.803Z,25
2023-04-24T11:39:25.783Z,24.8
2023-04-24T11:40:27.091Z,24.7
2023-04-24T11:41:28.306Z,24.7
2023-04-24T11:42:29.474Z,24.6
2023-04-24T11:43:33.498Z,24.5
2023-04-24T11:44:34.908Z,24.3
2023-04-24T11:45:36.184Z,24.2
2023-04-24T11:46:37.608Z,24.1
2023-04-24T11:47:40.116Z,24
2023-04-24T11:48:41.281Z,23.9
2023-04-24T11:49:42.503Z,23.8
2023-04-24T11:50:43.639Z,23.7
2023-04-24T11:51:52.883Z,23.6
2023-04-24T11:52:59.523Z,23.4
2023-04-24T11:54:04.222Z,23.3
2023-04-24T11:55:05.896Z,23.2
2023-04-24T11:56:07.053Z,23.2
2023-04-24T11:57:08.277Z,23.1
2023-04-24T11:58:09.436Z,23.1
2023-04-24T11:59:10.807Z,23.3
2023-04-24T12:00:12.053Z,23.7
2023-04-24T12:01:13.481Z,23.4
2023-04-24T12:02:17.235Z,23.4
2023-04-24T12:03:19.406Z,23.3
2023-04-24T12:04:23.669Z,23.3
2023-04-24T12:05:25.899Z,23.2
2023-04-24T12:06:28.275Z,23.1
2023-04-24T12:07:29.438Z,23.1
2023-04-24T12:08:33.482Z,23.1
2023-04-24T12:09:39.041Z,23
2023-04-24T12:10:40.237Z,23
2023-04-24T12:11:41.409Z,22.9
2023-04-24T12:12:42.546Z,22.8
2023-04-24T12:13:46.886Z,22.8
2023-04-24T12:14:53.012Z,22.7
2023-04-24T12:16:00.352Z,22.7
2023-04-24T12:17:04.498Z,22.6
2023-04-24T12:18:05.716Z,22.6
2023-04-24T12:19:07.057Z,23.1
2023-04-24T12:20:08.361Z,23.5
2023-04-24T12:21:09.559Z,23.3
2023-04-24T12:22:13.653Z,23.2
2023-04-24T12:23:17.752Z,23.1
2023-04-24T12:24:24.585Z,23
2023-04-24T12:25:32.738Z,23
2023-04-24T12:26:56.048Z,22.9
2023-04-24T12:29:55.700Z,22.8
2023-04-24T12:31:35.919Z,22.8
2023-04-24T12:34:03.486Z,22.9
2023-04-24T12:35:19.788Z,23.4
2023-04-24T13:15:00.819Z,21.6
2023-04-24T13:18:22.334Z,21.6
2023-04-24T13:19:39.506Z,21.6
2023-04-24T13:20:55.142Z,21.6
2023-04-24T13:22:40.687Z,21.6
2023-04-24T13:26:31.163Z,21.4
2023-04-24T13:31:03.583Z,21.2
2023-04-24T13:34:12.698Z,21
2023-04-24T13:40:25.702Z,21.8
2023-04-24T13:41:45.919Z,21.8
2023-04-24T13:44:23.866Z,22.1
2023-04-24T13:45:33.083Z,22.1
2023-04-24T13:47:13.129Z,22.1
2023-04-24T13:48:58.756Z,22.4
2023-04-24T13:51:56.912Z,22
2023-04-24T13:54:40.297Z,21.8
2023-04-24T13:56:23.768Z,21.6
2023-04-24T13:58:47.527Z,21.4
2023-04-24T14:38:46.461Z,21.5
2023-04-24T14:44:45.796Z,21.1
2023-04-24T14:46:17.938Z,21.2
2023-04-24T14:48:13.081Z,21
2023-04-24T14:49:36.104Z,20.9
2023-04-24T14:52:04.479Z,20.6
2023-04-24T14:55:24.108Z,20.4
2023-04-24T14:57:03.559Z,20.3
2023-04-24T15:39:33.638Z,18.7
2023-04-24T15:40:47.873Z,18.6
2023-04-24T15:43:46.437Z,18.5
2023-04-24T15:45:41.493Z,18.3
2023-04-24T15:48:20.230Z,18.2
2023-04-24T15:49:35.003Z,18.1
2023-04-24T15:58:49.051Z,17.6
2023-04-24T16:12:33.874Z,16.8
2023-04-24T16:19:56.393Z,16.3
2023-04-24T17:20:22.487Z,14.4
2023-04-24T17:21:31.020Z,14.4
2023-04-24T17:25:20.465Z,14.2
2023-04-24T17:26:33.349Z,14.2
2023-04-24T17:27:41.654Z,14.2
2023-04-24T17:28:42.976Z,14.1
2023-04-24T17:29:52.495Z,14.1
2023-04-24T17:30:53.828Z,14.1
2023-04-24T17:32:04.035Z,14
2023-04-24T17:33:10.261Z,14
2023-04-24T17:34:16.407Z,14
2023-04-24T17:35:28.666Z,13.9
2023-04-24T17:36:32.810Z,13.9
2023-04-24T17:37:33.982Z,13.9
2023-04-24T17:38:38.203Z,13.8
2023-04-24T17:39:42.359Z,13.8
2023-04-24T17:40:48.806Z,13.8
2023-04-24T17:41:57.728Z,13.8
2023-04-24T17:42:58.946Z,13.7
2023-04-24T17:44:03.172Z,13.7
2023-04-24T17:45:07.466Z,13.7
2023-04-24T17:46:11.080Z,13.6
2023-04-24T17:47:12.420Z,13.6
2023-04-24T17:48:16.336Z,13.6
2023-04-24T17:49:23.322Z,13.6
2023-04-24T17:50:26.652Z,13.6
2023-04-24T17:51:29.071Z,13.5
2023-04-24T17:52:33.135Z,13.5
2023-04-24T17:53:34.381Z,13.5
2023-04-24T17:54:38.739Z,13.4
2023-04-24T17:55:45.202Z,13.4
2023-04-24T17:57:07.313Z,13.4
2023-04-24T17:58:11.332Z,13.4
2023-04-24T17:59:12.701Z,13.3
2023-04-24T18:00:13.822Z,13.3
2023-04-24T18:01:15.051Z,13.3
2023-04-24T18:02:16.277Z,13.3
2023-04-24T18:03:17.775Z,13.3
2023-04-24T18:04:19.816Z,13.2
2023-04-24T18:05:21.796Z,13.2
2023-04-24T18:06:22.959Z,13.2
2023-04-24T18:07:24.150Z,13.2
2023-04-24T18:08:25.295Z,13.2
2023-04-24T18:09:26.472Z,13.1
2023-04-24T18:10:27.629Z,13.1
2023-04-24T18:11:28.805Z,13.1
2023-04-24T18:12:29.963Z,13.1
2023-04-24T18:13:31.128Z,13.1
2023-04-24T18:14:32.301Z,13
2023-04-24T18:15:33.484Z,13
2023-04-24T18:16:34.732Z,13
2023-04-24T18:17:35.984Z,13
2023-04-24T18:18:37.135Z,13
2023-04-24T18:19:38.328Z,12.9
2023-04-24T18:20:39.474Z,12.9
2023-04-24T18:21:40.629Z,12.9
2023-04-24T18:22:41.824Z,12.9
2023-04-24T18:23:43.061Z,12.9
2023-04-24T18:24:44.391Z,12.8
2023-04-24T18:25:45.548Z,12.8
2023-04-24T18:26:46.712Z,12.8
2023-04-24T18:27:47.877Z,12.7
2023-04-24T18:28:49.395Z,12.7
2023-04-24T18:29:51.524Z,12.7
2023-04-24T18:30:52.685Z,12.7
2023-04-24T18:31:53.915Z,12.6
2023-04-24T18:32:55.230Z,12.6
2023-04-24T18:33:56.497Z,12.6
2023-04-24T18:34:57.674Z,12.6
2023-04-24T18:35:58.835Z,12.5
2023-04-24T18:36:59.995Z,12.5
2023-04-24T18:38:01.196Z,12.5
2023-04-24T18:39:02.326Z,12.5
2023-04-24T18:40:03.517Z,12.4
2023-04-24T18:41:04.706Z,12.4
2023-04-24T18:42:05.873Z,12.4
2023-04-24T18:43:07.034Z,12.4
2023-04-24T18:44:08.202Z,12.3
2023-04-24T18:45:10.049Z,12.3
2023-04-24T18:46:15.879Z,12.3
2023-04-24T18:47:17.043Z,12.3
2023-04-24T18:48:18.202Z,12.2
2023-04-24T18:49:19.381Z,12.2
2023-04-24T18:50:20.553Z,12.2
2023-04-24T18:51:21.704Z,12.2
2023-04-24T18:52:22.868Z,12.2
2023-04-24T18:53:24.063Z,12.1
2023-04-24T18:54:25.293Z,12.1
2023-04-24T18:55:26.455Z,12.1
2023-04-24T18:56:27.619Z,12.1
2023-04-24T18:57:28.783Z,12
2023-04-24T18:58:29.948Z,12
2023-04-24T18:59:31.151Z,12
2023-04-24T19:00:32.288Z,12
2023-04-24T19:01:33.473Z,12
2023-04-24T19:02:34.984Z,11.9
2023-04-24T19:03:36.525Z,11.9
2023-04-24T19:04:37.819Z,11.9
2023-04-24T19:05:38.959Z,11.9
2023-04-24T19:06:40.162Z,11.8
2023-04-24T19:07:41.296Z,11.8
2023-04-24T19:08:42.491Z,11.8
2023-04-24T19:09:43.637Z,11.8
2023-04-24T19:10:44.795Z,11.8
2023-04-24T19:11:45.962Z,11.7
2023-04-24T19:12:47.127Z,11.7
2023-04-24T19:13:48.289Z,11.7
2023-04-24T19:14:49.541Z,11.6
2023-04-24T19:15:50.690Z,11.6
2023-04-24T19:16:51.906Z,11.6
2023-04-24T19:17:53.257Z,11.6
2023-04-24T19:18:54.499Z,11.5
2023-04-24T19:19:55.696Z,11.5
2023-04-24T19:20:56.831Z,11.5
2023-04-24T19:21:57.997Z,11.5
2023-04-24T19:22:59.159Z,11.4
2023-04-24T19:24:00.359Z,11.4
2023-04-24T19:25:01.502Z,11.4
2023-04-24T19:26:02.666Z,11.4
2023-04-24T19:27:03.847Z,11.4
2023-04-24T19:28:05.021Z,11.4
2023-04-24T19:29:06.266Z,11.3
2023-04-24T19:30:07.403Z,11.3
2023-04-24T19:31:08.569Z,11.3
2023-04-24T19:32:09.830Z,11.3
2023-04-24T19:33:11.387Z,11.3
2023-04-24T19:34:12.727Z,11.3
2023-04-24T19:35:13.928Z,11.3
2023-04-24T19:36:15.090Z,11.3
2023-04-24T19:37:16.252Z,11.2
2023-04-24T19:38:17.418Z,11.2
2023-04-24T19:39:18.616Z,11.2
2023-04-24T19:40:19.760Z,11.2
2023-04-24T19:41:20.915Z,11.2
2023-04-24T19:42:28.681Z,11.2
2023-04-24T19:43:44.814Z,11.2
2023-04-24T19:44:45.982Z,11.2
2023-04-24T19:45:47.162Z,11.2
2023-04-24T19:46:48.410Z,11.1
2023-04-24T19:47:49.594Z,11.1
2023-04-24T19:48:51.119Z,11.1
2023-04-24T19:49:52.925Z,11.1
2023-04-24T19:50:54.089Z,11.1
2023-04-24T19:51:55.258Z,11.1
2023-04-24T19:52:57.886Z,11.1
2023-04-24T19:53:59.054Z,11.1
2023-04-24T19:55:00.239Z,11
2023-04-24T19:56:01.601Z,11
2023-04-24T19:57:02.727Z,11
2023-04-24T19:58:03.899Z,11
2023-04-24T19:59:05.062Z,11